createdAt,value
2018-08-03T00:01:33.468Z,21.50
2018-08-03T00:04:02.704Z,21.40
2018-08-03T00:06:31.963Z,21.40
2018-08-03T00:09:01.201Z,21.50
2018-08-03T00:13:59.530Z,21.40
2018-08-03T00:16:28.822Z,21.30
2018-08-03T00:18:58.129Z,21.30
2018-08-03T00:21:27.430Z,21.30
2018-08-03T00:23:56.685Z,21.20
2018-08-03T00:26:25.937Z,21.20
2018-08-03T00:28:55.213Z,21.20
2018-08-03T00:31:24.456Z,21.20
2018-08-03T00:33:53.703Z,21.20
2018-08-03T00:36:22.948Z,21.20
2018-08-03T00:38:52.216Z,21.10
2018-08-03T00:41:21.486Z,21.10
2018-08-03T00:43:50.878Z,21.10
2018-08-03T00:46:20.150Z,21.00
2018-08-03T00:48:49.601Z,21.10
2018-08-03T00:51:18.861Z,21.00
2018-08-03T00:53:48.216Z,20.90
2018-08-03T00:56:17.462Z,20.90
2018-08-03T00:58:46.840Z,20.90
2018-08-03T01:01:16.071Z,20.90
2018-08-03T01:03:45.280Z,20.90
2018-08-03T01:06:14.624Z,20.80
2018-08-03T01:08:44.935Z,20.80
2018-08-03T01:11:14.230Z,20.70
2018-08-03T01:13:43.491Z,20.70
2018-08-03T01:16:12.743Z,20.70
2018-08-03T01:18:42.022Z,20.70
2018-08-03T01:21:11.278Z,20.70
2018-08-03T01:23:40.586Z,20.70
2018-08-03T01:26:09.866Z,20.60
2018-08-03T01:28:39.146Z,20.70
2018-08-03T01:31:08.406Z,20.60
2018-08-03T01:33:37.659Z,20.60
2018-08-03T01:36:06.929Z,20.60
2018-08-03T01:38:36.195Z,20.70
2018-08-03T01:41:05.445Z,20.60
2018-08-03T01:43:34.713Z,20.50
2018-08-03T01:46:03.989Z,20.50
2018-08-03T01:48:33.289Z,20.50
2018-08-03T01:51:02.596Z,20.40
2018-08-03T01:53:31.882Z,20.40
2018-08-03T01:56:01.201Z,20.40
2018-08-03T01:58:30.466Z,20.40
2018-08-03T02:00:59.737Z,20.40
2018-08-03T02:03:29.018Z,20.40
2018-08-03T02:05:58.289Z,20.30
2018-08-03T02:08:27.615Z,20.30
2018-08-03T02:10:56.981Z,20.30
2018-08-03T02:13:26.310Z,20.20
2018-08-03T02:15:55.719Z,20.30
2018-08-03T02:18:25.067Z,20.20
2018-08-03T02:20:54.322Z,20.30
2018-08-03T02:23:23.614Z,20.20
2018-08-03T02:25:52.908Z,20.20
2018-08-03T02:28:22.197Z,20.20
2018-08-03T02:30:51.466Z,20.20
2018-08-03T02:33:20.739Z,20.20
2018-08-03T02:35:50.069Z,20.10
2018-08-03T02:38:19.330Z,20.10
2018-08-03T02:40:48.601Z,20.10
2018-08-03T02:43:17.888Z,20.10
2018-08-03T02:45:47.132Z,20.10
2018-08-03T02:48:16.437Z,20.00
2018-08-03T02:50:45.728Z,20.10
2018-08-03T02:53:14.990Z,20.10
2018-08-03T02:55:44.427Z,20.10
2018-08-03T02:58:13.719Z,20.00
2018-08-03T03:00:43.000Z,20.00
2018-08-03T03:03:12.278Z,20.00
2018-08-03T03:05:41.571Z,20.00
2018-08-03T03:08:10.878Z,20.00
2018-08-03T03:10:40.148Z,19.90
2018-08-03T03:13:09.420Z,20.00
2018-08-03T03:15:38.710Z,19.90
2018-08-03T03:18:08.010Z,19.90
2018-08-03T03:20:37.331Z,19.90
2018-08-03T03:23:06.566Z,19.90
2018-08-03T03:25:35.925Z,19.90
2018-08-03T03:28:05.237Z,19.80
2018-08-03T03:30:34.507Z,19.90
2018-08-03T03:33:03.954Z,19.80
2018-08-03T03:35:33.238Z,19.80
2018-08-03T03:38:02.629Z,19.80
2018-08-03T03:40:31.914Z,19.90
2018-08-03T03:43:01.193Z,19.90
2018-08-03T03:45:30.483Z,19.90
2018-08-03T03:47:59.750Z,19.80
2018-08-03T03:50:29.037Z,19.70
2018-08-03T03:52:58.303Z,19.70
2018-08-03T03:55:27.550Z,19.70
2018-08-03T03:57:56.889Z,19.60
2018-08-03T04:00:26.192Z,19.70
2018-08-03T04:02:55.461Z,19.60
2018-08-03T04:05:24.746Z,19.60
2018-08-03T04:07:54.003Z,19.60
2018-08-03T04:10:23.308Z,19.60
2018-08-03T04:12:52.623Z,19.60
2018-08-03T04:15:21.922Z,19.60
2018-08-03T04:17:51.182Z,19.60
2018-08-03T04:20:20.467Z,19.70
2018-08-03T04:22:49.724Z,19.70
2018-08-03T04:25:19.011Z,19.70
2018-08-03T04:27:48.334Z,19.80
2018-08-03T04:32:46.726Z,19.90
2018-08-03T04:35:16.015Z,19.90
2018-08-03T04:37:45.366Z,20.00
2018-08-03T04:40:14.721Z,20.10
2018-08-03T04:42:44.014Z,20.10
2018-08-03T04:45:13.403Z,20.20
2018-08-03T04:47:42.686Z,20.30
2018-08-03T04:50:12.002Z,20.30
2018-08-03T04:52:41.270Z,20.40
2018-08-03T04:55:11.126Z,20.50
2018-08-03T04:57:40.405Z,20.50
2018-08-03T05:02:39.052Z,20.70
2018-08-03T05:05:08.435Z,20.80
2018-08-03T05:07:37.760Z,20.80
2018-08-03T05:12:36.419Z,20.80
2018-08-03T05:15:07.087Z,21.00
2018-08-03T05:17:36.557Z,21.10
2018-08-03T05:20:06.588Z,21.10
2018-08-03T05:22:35.915Z,21.30
2018-08-03T05:25:05.878Z,21.70
2018-08-03T05:27:35.191Z,22.60
2018-08-03T05:30:05.338Z,23.70
2018-08-03T05:32:34.662Z,24.90
2018-08-03T05:35:04.213Z,25.80
2018-08-03T05:37:33.386Z,26.60
2018-08-03T05:40:02.745Z,27.40
2018-08-03T05:42:32.049Z,27.90
2018-08-03T05:45:01.392Z,28.40
2018-08-03T05:47:30.943Z,28.70
2018-08-03T05:50:00.242Z,28.90
2018-08-03T05:52:29.574Z,29.10
2018-08-03T05:54:58.954Z,29.50
2018-08-03T05:57:28.314Z,29.80
2018-08-03T05:59:57.739Z,30.20
2018-08-03T06:02:27.035Z,30.30
2018-08-03T06:04:56.329Z,30.20
2018-08-03T06:07:25.609Z,30.30
2018-08-03T06:09:54.861Z,30.00
2018-08-03T06:12:24.202Z,30.30
2018-08-03T06:14:53.487Z,30.10
2018-08-03T06:17:22.807Z,30.40
2018-08-03T06:19:52.091Z,30.40
2018-08-03T06:22:21.405Z,30.50
2018-08-03T06:24:50.649Z,30.90
2018-08-03T06:27:20.091Z,30.80
2018-08-03T06:29:49.555Z,30.90
2018-08-03T06:32:18.793Z,30.80
2018-08-03T06:34:48.127Z,31.20
2018-08-03T06:37:17.467Z,31.10
2018-08-03T06:39:46.786Z,30.70
2018-08-03T06:42:16.109Z,29.80
2018-08-03T06:44:45.465Z,28.90
2018-08-03T06:49:43.882Z,27.50
2018-08-03T06:52:13.349Z,27.10
2018-08-03T06:54:42.699Z,26.70
2018-08-03T06:57:12.092Z,26.50
2018-08-03T06:59:41.376Z,26.30
2018-08-03T07:02:10.802Z,26.40
2018-08-03T07:04:40.123Z,26.30
2018-08-03T07:07:09.444Z,26.20
2018-08-03T07:09:38.798Z,26.30
2018-08-03T07:12:08.155Z,26.40
2018-08-03T07:14:37.470Z,26.60
2018-08-03T07:17:07.149Z,26.80
2018-08-03T07:19:36.529Z,26.90
2018-08-03T07:22:05.850Z,27.00
2018-08-03T07:24:35.210Z,27.20
2018-08-03T07:29:33.611Z,27.30
2018-08-03T07:32:02.847Z,27.40
2018-08-03T07:34:32.470Z,27.40
2018-08-03T07:37:01.867Z,27.50
2018-08-03T07:39:31.227Z,27.50
2018-08-03T07:42:00.539Z,27.60
2018-08-03T07:44:29.785Z,27.80
2018-08-03T07:46:59.037Z,27.90
2018-08-03T07:49:28.412Z,27.90
2018-08-03T07:51:57.841Z,27.90
2018-08-03T07:54:27.234Z,28.00
2018-08-03T07:56:57.383Z,28.10
2018-08-03T07:59:26.712Z,28.40
2018-08-03T08:01:55.998Z,28.40
2018-08-03T08:04:25.329Z,28.40
2018-08-03T08:06:54.608Z,28.50
2018-08-03T08:09:23.895Z,28.60
2018-08-03T08:11:54.176Z,28.60
2018-08-03T08:14:23.490Z,28.60
2018-08-03T08:16:52.753Z,28.60
2018-08-03T08:19:22.062Z,28.70
2018-08-03T08:21:51.364Z,28.80
2018-08-03T08:24:20.672Z,28.80
2018-08-03T08:26:49.962Z,29.00
2018-08-03T08:29:19.328Z,29.20
2018-08-03T08:31:48.661Z,29.20
2018-08-03T08:34:18.034Z,29.10
2018-08-03T08:36:47.290Z,29.30
2018-08-03T08:39:16.605Z,29.30
2018-08-03T08:41:45.889Z,29.40
2018-08-03T08:44:15.171Z,29.40
2018-08-03T08:46:44.490Z,29.30
2018-08-03T08:49:13.943Z,29.30
2018-08-03T08:51:43.199Z,29.30
2018-08-03T08:56:41.513Z,29.60
2018-08-03T08:59:10.917Z,29.60
2018-08-03T09:01:40.308Z,29.80
2018-08-03T09:04:09.620Z,29.50
2018-08-03T09:06:38.982Z,29.80
2018-08-03T09:09:10.374Z,29.90
2018-08-03T09:11:40.068Z,29.90
2018-08-03T09:16:38.466Z,29.90
2018-08-03T09:19:07.839Z,30.00
2018-08-03T09:21:37.188Z,30.10
2018-08-03T09:24:06.526Z,30.10
2018-08-03T09:26:35.872Z,30.10
2018-08-03T09:29:05.221Z,30.30
2018-08-03T09:31:35.601Z,30.40
2018-08-03T09:34:04.987Z,30.40
2018-08-03T09:36:34.596Z,30.40
2018-08-03T09:39:05.232Z,30.50
2018-08-03T09:41:34.694Z,30.50
2018-08-03T09:44:03.998Z,30.60
2018-08-03T09:46:33.454Z,30.60
2018-08-03T09:49:02.857Z,30.70
2018-08-03T09:51:32.174Z,30.90
2018-08-03T09:54:01.483Z,30.90
2018-08-03T09:56:30.987Z,30.90
2018-08-03T09:59:00.408Z,30.80
2018-08-03T10:01:29.786Z,30.90
2018-08-03T10:03:59.432Z,31.00
2018-08-03T10:06:28.773Z,31.10
2018-08-03T10:11:27.408Z,31.20
2018-08-03T10:13:56.737Z,31.30
2018-08-03T10:16:26.145Z,31.30
2018-08-03T10:18:55.522Z,31.20
2018-08-03T10:21:24.911Z,31.20
2018-08-03T10:23:54.195Z,31.10
2018-08-03T10:26:23.674Z,31.20
2018-08-03T10:28:53.343Z,31.40
2018-08-03T10:31:22.808Z,31.50
2018-08-03T10:33:52.403Z,31.60
2018-08-03T10:36:21.750Z,31.70
2018-08-03T10:38:51.054Z,31.60
2018-08-03T10:41:20.417Z,31.60
2018-08-03T10:43:49.851Z,31.70
2018-08-03T10:46:19.255Z,31.80
2018-08-03T10:48:55.556Z,31.80
2018-08-03T10:51:24.886Z,31.90
2018-08-03T10:53:54.250Z,31.90
2018-08-03T10:56:23.702Z,32.00
2018-08-03T10:58:53.063Z,32.20
2018-08-03T11:01:22.614Z,32.20
2018-08-03T11:03:52.382Z,32.20
2018-08-03T11:06:21.716Z,32.20
2018-08-03T11:08:51.030Z,32.10
2018-08-03T11:11:21.226Z,32.20
2018-08-03T11:13:57.079Z,32.30
2018-08-03T11:16:26.379Z,32.20
2018-08-03T11:18:55.786Z,32.20
2018-08-03T11:21:25.142Z,32.10
2018-08-03T11:23:54.507Z,32.20
2018-08-03T11:26:23.875Z,32.30
2018-08-03T11:28:53.214Z,32.50
2018-08-03T11:31:23.645Z,32.50
2018-08-03T11:33:52.954Z,32.60
2018-08-03T11:36:22.283Z,32.80
2018-08-03T11:38:51.628Z,32.80
2018-08-03T11:41:20.946Z,32.90
2018-08-03T11:43:50.400Z,32.70
2018-08-03T11:46:19.863Z,32.80
2018-08-03T11:48:49.318Z,32.70
2018-08-03T11:51:18.758Z,32.90
2018-08-03T11:53:49.168Z,33.10
2018-08-03T11:56:18.652Z,33.20
2018-08-03T11:58:48.950Z,33.30
2018-08-03T12:03:47.842Z,33.20
2018-08-03T12:06:17.194Z,33.10
2018-08-03T12:08:46.734Z,33.20
2018-08-03T12:11:16.168Z,33.30
2018-08-03T12:13:45.551Z,33.50
2018-08-03T12:16:15.045Z,33.40
2018-08-03T12:18:44.469Z,33.40
2018-08-03T12:21:13.777Z,33.30
2018-08-03T12:23:43.219Z,33.40
2018-08-03T12:26:12.909Z,33.50
2018-08-03T12:28:42.226Z,33.60
2018-08-03T12:31:11.569Z,33.80
2018-08-03T12:36:09.976Z,34.00
2018-08-03T12:38:39.322Z,34.10
2018-08-03T12:41:08.671Z,34.00
2018-08-03T12:43:38.218Z,33.90
2018-08-03T12:46:07.566Z,33.90
2018-08-03T12:48:36.866Z,34.00
2018-08-03T12:53:36.023Z,34.30
2018-08-03T12:56:05.375Z,34.40
2018-08-03T12:58:34.722Z,34.50
2018-08-03T13:01:04.060Z,34.60
2018-08-03T13:03:33.431Z,34.70
2018-08-03T13:06:02.767Z,34.70
2018-08-03T13:08:32.265Z,34.70
2018-08-03T13:11:01.448Z,34.70
2018-08-03T13:13:30.856Z,34.60
2018-08-03T13:16:00.145Z,34.30
2018-08-03T13:18:29.469Z,33.90
2018-08-03T13:20:58.871Z,33.50
2018-08-03T13:23:28.246Z,33.10
2018-08-03T13:25:57.667Z,33.00
2018-08-03T13:28:26.979Z,33.10
2018-08-03T13:30:56.359Z,33.20
2018-08-03T13:33:25.779Z,33.50
2018-08-03T13:35:55.184Z,33.70
2018-08-03T13:38:24.523Z,33.90
2018-08-03T13:40:54.027Z,34.00
2018-08-03T13:43:23.495Z,34.10
2018-08-03T13:48:28.816Z,34.30
2018-08-03T13:50:58.222Z,34.20
2018-08-03T13:53:27.555Z,34.30
2018-08-03T13:55:57.065Z,34.40
2018-08-03T13:58:26.471Z,34.60
2018-08-03T14:01:13.059Z,34.80
2018-08-03T14:03:42.680Z,35.00
2018-08-03T14:06:12.087Z,35.10
2018-08-03T14:08:44.099Z,35.40
2018-08-03T14:11:13.938Z,35.60
2018-08-03T14:13:43.341Z,35.60
2018-08-03T14:16:13.039Z,35.50
2018-08-03T14:18:42.813Z,35.40
2018-08-03T14:21:12.306Z,35.30
2018-08-03T14:23:41.660Z,35.40
2018-08-03T14:26:11.033Z,35.50
2018-08-03T14:28:40.562Z,35.50
2018-08-03T14:33:39.089Z,35.20
2018-08-03T14:36:08.485Z,35.00
2018-08-03T14:38:37.878Z,35.00
2018-08-03T14:41:07.415Z,35.00
2018-08-03T14:43:36.803Z,35.00
2018-08-03T14:46:06.183Z,35.00
2018-08-03T14:48:35.619Z,35.10
2018-08-03T14:51:05.162Z,35.30
2018-08-03T14:53:34.495Z,35.40
2018-08-03T14:56:03.935Z,35.50
2018-08-03T14:58:33.357Z,35.50
2018-08-03T15:01:02.941Z,35.30
2018-08-03T15:03:32.239Z,35.30
2018-08-03T15:06:01.670Z,35.10
2018-08-03T15:08:31.130Z,34.70
2018-08-03T15:11:00.517Z,34.40
2018-08-03T15:13:29.916Z,34.00
2018-08-03T15:18:28.328Z,33.40
2018-08-03T15:20:57.701Z,33.30
2018-08-03T15:23:27.074Z,33.40
2018-08-03T15:25:56.471Z,33.70
2018-08-03T15:28:25.795Z,33.90
2018-08-03T15:30:55.160Z,34.00
2018-08-03T15:33:24.668Z,34.00
2018-08-03T15:35:54.420Z,34.10
2018-08-03T15:38:23.775Z,34.20
2018-08-03T15:40:53.170Z,34.20
2018-08-03T15:43:22.414Z,34.20
2018-08-03T15:45:51.745Z,34.20
2018-08-03T15:48:21.043Z,34.20
2018-08-03T15:50:50.410Z,34.20
2018-08-03T15:53:19.718Z,34.30
2018-08-03T15:55:49.064Z,34.30
2018-08-03T15:58:18.347Z,34.30
2018-08-03T16:00:47.710Z,34.30
2018-08-03T16:03:17.047Z,34.30
2018-08-03T16:05:46.336Z,34.30
2018-08-03T16:08:15.754Z,34.00
2018-08-03T16:10:45.040Z,34.00
2018-08-03T16:13:14.447Z,34.00
2018-08-03T16:18:12.838Z,34.00
2018-08-03T16:20:42.119Z,34.00
2018-08-03T16:23:11.410Z,33.90
2018-08-03T16:25:40.753Z,33.90
2018-08-03T16:28:10.264Z,33.80
2018-08-03T16:30:39.594Z,33.80
2018-08-03T16:33:08.995Z,33.70
2018-08-03T16:35:38.388Z,33.70
2018-08-03T16:38:07.733Z,33.70
2018-08-03T16:40:37.146Z,33.70
2018-08-03T16:43:06.541Z,33.60
2018-08-03T16:45:35.855Z,33.50
2018-08-03T16:48:05.254Z,33.50
2018-08-03T16:50:34.757Z,33.50
2018-08-03T16:53:04.124Z,33.50
2018-08-03T16:55:33.470Z,33.40
2018-08-03T16:58:02.766Z,33.30
2018-08-03T17:00:32.065Z,33.20
2018-08-03T17:03:01.487Z,33.10
2018-08-03T17:05:30.867Z,33.10
2018-08-03T17:08:00.238Z,33.10
2018-08-03T17:10:29.685Z,33.40
2018-08-03T17:12:59.035Z,33.70
2018-08-03T17:15:28.367Z,34.10
2018-08-03T17:17:58.906Z,34.40
2018-08-03T17:20:28.844Z,34.50
2018-08-03T17:22:58.387Z,34.70
2018-08-03T17:27:58.013Z,34.90
2018-08-03T17:30:27.427Z,34.90
2018-08-03T17:32:56.816Z,35.10
2018-08-03T17:35:26.276Z,35.30
2018-08-03T17:37:55.633Z,35.50
2018-08-03T17:40:24.951Z,35.50
2018-08-03T17:42:54.301Z,35.40
2018-08-03T17:45:23.718Z,35.20
2018-08-03T17:47:53.085Z,34.70
2018-08-03T17:50:22.378Z,34.20
2018-08-03T17:52:51.783Z,33.80
2018-08-03T17:55:21.063Z,33.50
2018-08-03T17:57:50.468Z,33.20
2018-08-03T18:00:20.027Z,33.00
2018-08-03T18:02:49.510Z,32.70
2018-08-03T18:05:19.047Z,32.50
2018-08-03T18:07:48.400Z,32.20
2018-08-03T18:10:18.092Z,32.10
2018-08-03T18:12:47.362Z,32.00
2018-08-03T18:15:16.863Z,32.10
2018-08-03T18:17:46.180Z,32.20
2018-08-03T18:20:15.667Z,32.30
2018-08-03T18:22:45.008Z,32.10
2018-08-03T18:25:14.370Z,31.80
2018-08-03T18:27:43.733Z,31.60
2018-08-03T18:30:13.069Z,31.40
2018-08-03T18:32:42.404Z,31.20
2018-08-03T18:35:11.670Z,31.10
2018-08-03T18:37:41.038Z,30.90
2018-08-03T18:40:11.087Z,30.80
2018-08-03T18:42:40.708Z,30.60
2018-08-03T18:45:10.078Z,30.40
2018-08-03T18:47:39.447Z,30.20
2018-08-03T18:50:08.822Z,30.00
2018-08-03T18:52:38.233Z,29.80
2018-08-03T18:55:07.657Z,29.60
2018-08-03T18:57:36.986Z,29.40
2018-08-03T19:00:06.999Z,29.10
2018-08-03T19:02:36.339Z,29.00
2018-08-03T19:05:07.030Z,28.80
2018-08-03T19:07:36.524Z,28.70
2018-08-03T19:10:05.900Z,28.50
2018-08-03T19:12:35.147Z,28.40
2018-08-03T19:15:04.639Z,28.20
2018-08-03T19:17:33.914Z,28.00
2018-08-03T19:20:03.415Z,27.80
2018-08-03T19:22:32.692Z,27.70
2018-08-03T19:25:02.099Z,27.60
2018-08-03T19:27:31.422Z,27.40
2018-08-03T19:30:00.792Z,27.30
2018-08-03T19:32:30.115Z,27.20
2018-08-03T19:34:59.342Z,27.10
2018-08-03T19:37:29.418Z,27.00
2018-08-03T19:39:58.777Z,26.90
2018-08-03T19:42:28.167Z,26.80
2018-08-03T19:44:57.476Z,26.70
2018-08-03T19:47:27.043Z,26.70
2018-08-03T19:49:56.327Z,26.60
2018-08-03T19:52:25.855Z,26.50
2018-08-03T19:54:55.122Z,26.50
2018-08-03T19:57:24.385Z,26.40
2018-08-03T19:59:53.748Z,26.30
2018-08-03T20:02:23.039Z,26.30
2018-08-03T20:04:52.342Z,26.20
2018-08-03T20:07:22.215Z,26.20
2018-08-03T20:09:51.474Z,26.10
2018-08-03T20:12:20.758Z,26.10
2018-08-03T20:14:50.059Z,26.00
2018-08-03T20:19:48.287Z,25.90
2018-08-03T20:22:18.886Z,25.80
2018-08-03T20:24:48.285Z,25.70
2018-08-03T20:27:17.714Z,25.70
2018-08-03T20:29:47.074Z,25.70
2018-08-03T20:32:16.402Z,25.60
2018-08-03T20:34:45.828Z,25.60
2018-08-03T20:37:15.115Z,25.50
2018-08-03T20:39:44.461Z,25.50
2018-08-03T20:42:13.738Z,25.50
2018-08-03T20:44:43.092Z,25.40
2018-08-03T20:47:12.400Z,25.40
2018-08-03T20:49:41.790Z,25.40
2018-08-03T20:52:11.138Z,25.20
2018-08-03T20:54:43.314Z,25.20
2018-08-03T20:57:12.618Z,25.20
2018-08-03T20:59:42.038Z,25.10
2018-08-03T21:02:11.344Z,25.00
2018-08-03T21:04:40.728Z,24.90
2018-08-03T21:07:09.999Z,24.90
2018-08-03T21:09:39.314Z,24.90
2018-08-03T21:12:08.744Z,24.80
2018-08-03T21:14:38.087Z,24.70
2018-08-03T21:19:36.498Z,24.60
2018-08-03T21:22:05.812Z,24.60
2018-08-03T21:27:09.635Z,24.50
2018-08-03T21:29:39.321Z,24.50
2018-08-03T21:32:08.675Z,24.40
2018-08-03T21:34:38.011Z,24.40
2018-08-03T21:37:07.297Z,24.30
2018-08-03T21:39:36.837Z,24.30
2018-08-03T21:42:06.338Z,24.30
2018-08-03T21:44:35.784Z,24.20
2018-08-03T21:49:34.049Z,24.10
2018-08-03T21:52:03.370Z,24.10
2018-08-03T21:54:32.641Z,24.10
2018-08-03T21:57:01.967Z,24.00
2018-08-03T21:59:31.263Z,24.00
2018-08-03T22:04:29.526Z,23.90
2018-08-03T22:06:58.793Z,23.90
2018-08-03T22:11:57.143Z,23.80
2018-08-03T22:14:26.362Z,23.80
2018-08-03T22:16:55.678Z,23.80
2018-08-03T22:19:24.931Z,23.80
2018-08-03T22:21:54.176Z,23.80
2018-08-03T22:24:23.533Z,23.70
2018-08-03T22:26:52.922Z,23.70
2018-08-03T22:29:22.283Z,23.60
2018-08-03T22:31:51.655Z,23.60
2018-08-03T22:34:21.013Z,23.60
2018-08-03T22:36:50.357Z,23.60
2018-08-03T22:39:19.819Z,23.50
2018-08-03T22:41:49.221Z,23.50
2018-08-03T22:44:18.529Z,23.40
2018-08-03T22:46:47.805Z,23.30
2018-08-03T22:51:46.125Z,23.30
2018-08-03T22:54:15.380Z,23.30
2018-08-03T22:56:44.640Z,23.20
2018-08-03T22:59:13.954Z,23.20
2018-08-03T23:01:43.431Z,23.20
2018-08-03T23:04:12.693Z,23.10
2018-08-03T23:06:42.139Z,23.10
2018-08-03T23:09:11.343Z,23.10
2018-08-03T23:11:40.652Z,23.10
2018-08-03T23:14:09.878Z,23.10
2018-08-03T23:16:39.121Z,23.00
2018-08-03T23:19:08.426Z,23.00
2018-08-03T23:21:37.650Z,23.00
2018-08-03T23:24:06.966Z,23.00
2018-08-03T23:26:36.204Z,23.00
2018-08-03T23:31:34.522Z,23.00
2018-08-03T23:34:03.829Z,23.00
2018-08-03T23:36:33.076Z,23.00
2018-08-03T23:39:02.310Z,23.00
2018-08-03T23:41:31.542Z,23.00
2018-08-03T23:44:00.818Z,22.90
2018-08-03T23:46:30.066Z,22.90
2018-08-03T23:48:59.310Z,22.80
2018-08-03T23:51:28.535Z,22.80
2018-08-03T23:53:57.801Z,22.80
2018-08-03T23:56:27.018Z,22.90
2018-08-03T23:58:56.241Z,22.90
